Time;durP1;ratioP1;P1;durP2;ratioP2;P2;SDS_P1;SDS_P2;PMS_P1;PMS_P2;Temp;Humidity;BMP_temperature;BMP_pressure;BME280_temperature;BME280_humidity;BME280_pressure;Samples;Min_cycle;Max_cycle;Signal;HPM_P1;HPM_P2
2023/04/26 00:02:14;;;;;;;3.67;2.25;;;19.00;63.80;;;;;;6208985;23;20027;-77
2023/04/26 00:04:40;;;;;;;3.63;2.55;;;18.90;64.10;;;;;;6209499;23;20021;-77
2023/04/26 00:07:06;;;;;;;3.45;2.28;;;18.90;64.10;;;;;;6209377;23;20019;-76
2023/04/26 00:09:32;;;;;;;2.60;2.40;;;18.90;64.30;;;;;;6210073;23;20013;-76
2023/04/26 00:11:58;;;;;;;3.13;2.38;;;18.90;64.10;;;;;;6209432;23;20601;-76
2023/04/26 00:14:24;;;;;;;2.80;2.47;;;18.90;64.10;;;;;;6209430;23;20016;-76
2023/04/26 00:16:51;;;;;;;2.80;2.40;;;18.90;64.20;;;;;;6207679;23;20498;-76
2023/04/26 00:19:17;;;;;;;3.03;2.22;;;18.90;64.20;;;;;;6207747;23;20020;-76
2023/04/26 00:21:43;;;;;;;4.20;2.45;;;18.90;64.30;;;;;;6209717;23;20009;-77
2023/04/26 00:24:09;;;;;;;2.45;2.20;;;18.90;64.30;;;;;;6209097;23;20560;-76
2023/04/26 00:26:35;;;;;;;2.72;2.38;;;18.90;64.20;;;;;;6209429;23;20024;-77
2023/04/26 00:29:03;;;;;;;3.30;2.30;;;18.90;64.30;;;;;;6209292;23;20021;-77
2023/04/26 00:31:29;;;;;;;5.00;2.50;;;18.90;64.20;;;;;;6206973;23;20091;-78
2023/04/26 00:33:55;;;;;;;3.30;2.60;;;18.90;64.30;;;;;;6207649;23;20022;-78
2023/04/26 00:36:21;;;;;;;2.63;2.42;;;18.90;64.50;;;;;;6209675;23;20024;-77
2023/04/26 00:38:47;;;;;;;2.80;2.33;;;18.90;64.20;;;;;;6232844;23;20500;-77
2023/04/26 00:41:13;;;;;;;3.35;2.35;;;18.90;64.60;;;;;;6191771;23;20424;-77
2023/04/26 00:43:40;;;;;;;3.13;2.50;;;18.90;64.30;;;;;;6202452;23;20017;-77
2023/04/26 00:46:09;;;;;;;3.03;2.20;;;18.80;64.30;;;;;;6179137;23;20357;-77
2023/04/26 00:48:36;;;;;;;2.88;2.67;;;18.90;64.30;;;;;;6203010;23;20090;-77
2023/04/26 00:51:03;;;;;;;2.58;2.20;;;18.90;64.50;;;;;;6179342;23;20519;-77
2023/04/26 00:53:30;;;;;;;3.17;2.45;;;18.90;65.00;;;;;;6202113;23;20017;-77
2023/04/26 00:55:57;;;;;;;3.70;2.00;;;18.90;64.50;;;;;;6178567;23;20490;-77
2023/04/26 00:58:24;;;;;;;3.78;2.15;;;18.80;64.40;;;;;;6202251;23;20045;-77
2023/04/26 01:00:51;;;;;;;4.25;2.13;;;18.90;64.50;;;;;;6179255;23;20023;-77
2023/04/26 01:03:17;;;;;;;2.83;2.42;;;18.80;64.50;;;;;;6202393;23;20016;-77
2023/04/26 01:05:44;;;;;;;4.38;2.47;;;18.80;64.70;;;;;;6198926;23;20020;-77
2023/04/26 01:08:10;;;;;;;2.90;2.42;;;18.80;64.60;;;;;;6232544;23;20099;-77
2023/04/26 01:10:37;;;;;;;2.45;2.20;;;18.90;64.70;;;;;;6208731;23;20016;-77
2023/04/26 01:13:03;;;;;;;3.90;2.60;;;18.80;64.80;;;;;;6207094;23;20017;-77
2023/04/26 01:15:31;;;;;;;3.10;2.50;;;18.80;64.90;;;;;;6233038;23;20095;-77
2023/04/26 01:17:58;;;;;;;2.65;2.45;;;18.80;64.90;;;;;;6200899;23;20027;-77
2023/04/26 01:20:25;;;;;;;2.53;2.30;;;18.80;64.80;;;;;;6208974;23;20035;-77
2023/04/26 01:22:51;;;;;;;2.95;2.38;;;18.80;64.80;;;;;;6209033;23;20079;-77
2023/04/26 01:25:18;;;;;;;2.67;2.22;;;18.80;64.90;;;;;;6207394;23;20012;-78
2023/04/26 01:27:44;;;;;;;2.53;2.00;;;18.80;65.20;;;;;;6233066;23;20023;-77
2023/04/26 01:30:11;;;;;;;2.65;2.17;;;18.80;65.30;;;;;;6180539;23;20028;-77
2023/04/26 01:32:37;;;;;;;2.38;2.17;;;18.80;65.20;;;;;;6200775;23;20066;-76
2023/04/26 01:35:04;;;;;;;2.38;2.17;;;18.80;65.00;;;;;;6208915;23;20040;-77
2023/04/26 01:37:30;;;;;;;3.65;2.20;;;18.80;65.20;;;;;;6232558;23;20023;-76
2023/04/26 01:39:58;;;;;;;2.50;2.30;;;18.80;65.00;;;;;;6209121;23;20039;-76
2023/04/26 01:42:24;;;;;;;2.40;2.08;;;18.80;65.10;;;;;;6234606;23;20449;-76
2023/04/26 01:44:50;;;;;;;3.10;2.80;;;18.80;65.00;;;;;;6212366;23;20027;-76
2023/04/26 01:47:16;;;;;;;5.97;2.42;;;18.80;65.20;;;;;;6235492;23;20024;-77
2023/04/26 01:49:42;;;;;;;3.55;2.53;;;18.80;65.50;;;;;;6212444;23;20020;-76
2023/04/26 01:52:08;;;;;;;2.60;2.10;;;18.80;65.40;;;;;;6235826;23;20063;-76
2023/04/26 01:54:34;;;;;;;3.05;1.90;;;18.80;65.50;;;;;;6235723;23;20088;-76
2023/04/26 01:57:01;;;;;;;1.92;1.80;;;18.70;65.40;;;;;;6235843;23;20044;-76
2023/04/26 01:59:27;;;;;;;2.08;1.70;;;18.70;65.40;;;;;;6185413;23;20025;-77
2023/04/26 02:01:53;;;;;;;2.97;1.90;;;18.70;65.90;;;;;;6212006;23;20042;-77
2023/04/26 02:04:19;;;;;;;1.80;1.67;;;18.70;65.70;;;;;;6235651;23;20020;-77
2023/04/26 02:06:45;;;;;;;2.22;2.03;;;18.70;65.60;;;;;;6210558;23;20459;-77
2023/04/26 02:09:11;;;;;;;2.25;1.70;;;18.70;65.80;;;;;;6235738;23;20020;-77
2023/04/26 02:11:39;;;;;;;2.20;1.77;;;18.70;65.70;;;;;;6210547;23;20025;-77
2023/04/26 02:14:05;;;;;;;3.90;1.80;;;18.70;66.00;;;;;;6212228;23;20031;-77
2023/04/26 02:16:31;;;;;;;1.38;1.35;;;18.70;66.10;;;;;;6235333;23;20020;-78
2023/04/26 02:19:02;;;;;;;1.85;1.75;;;18.70;66.20;;;;;;6185410;23;20420;-77
2023/04/26 02:21:29;;;;;;;2.92;1.60;;;18.70;65.90;;;;;;6210609;23;20024;-77
2023/04/26 02:23:56;;;;;;;2.92;1.30;;;18.70;66.00;;;;;;6212095;23;20039;-77
2023/04/26 02:26:23;;;;;;;2.22;1.58;;;18.70;65.90;;;;;;6210310;23;20435;-78
2023/04/26 02:28:48;;;;;;;2.30;1.50;;;18.70;66.00;;;;;;6235744;23;20024;-78
2023/04/26 02:31:14;;;;;;;1.63;1.40;;;18.70;66.00;;;;;;6211645;23;20024;-78
2023/04/26 02:33:41;;;;;;;1.98;1.50;;;18.70;66.00;;;;;;6235808;23;20016;-78
2023/04/26 02:36:08;;;;;;;1.25;1.15;;;18.70;66.50;;;;;;6186337;23;20502;-77
2023/04/26 02:38:35;;;;;;;1.90;1.10;;;18.70;66.10;;;;;;6158657;23;20016;-76
2023/04/26 02:41:03;;;;;;;1.65;1.55;;;18.70;66.10;;;;;;6234742;23;20032;-76
2023/04/26 02:43:30;;;;;;;1.25;1.10;;;18.70;66.10;;;;;;6234521;23;20025;-76
2023/04/26 02:46:00;;;;;;;0.98;0.98;;;18.70;66.00;;;;;;6235478;23;20350;-76
2023/04/26 02:48:26;;;;;;;1.08;1.02;;;18.60;66.00;;;;;;6154870;23;20067;-77
2023/04/26 02:50:52;;;;;;;1.27;1.00;;;18.70;66.20;;;;;;6179340;23;20021;-76
2023/04/26 02:53:18;;;;;;;2.53;1.10;;;18.70;66.00;;;;;;6194830;23;20021;-76
2023/04/26 02:55:44;;;;;;;1.95;0.95;;;18.70;65.90;;;;;;6210044;23;20544;-77
2023/04/26 02:58:10;;;;;;;1.52;1.40;;;18.60;65.90;;;;;;6208276;23;20039;-77
2023/04/26 03:00:36;;;;;;;1.58;1.48;;;18.60;66.00;;;;;;6233856;23;20460;-76
2023/04/26 03:03:02;;;;;;;3.45;1.95;;;18.60;66.20;;;;;;6208136;23;20108;-76
2023/04/26 03:05:28;;;;;;;3.38;1.40;;;18.60;66.20;;;;;;6208540;23;20013;-79
2023/04/26 03:07:54;;;;;;;2.03;1.40;;;18.60;66.50;;;;;;6210134;23;20361;-78
2023/04/26 03:10:20;;;;;;;1.52;1.30;;;18.60;66.40;;;;;;6233798;23;20104;-78
2023/04/26 03:12:46;;;;;;;1.80;1.42;;;18.60;66.40;;;;;;6233954;23;20008;-78
2023/04/26 03:15:14;;;;;;;1.40;1.30;;;18.60;66.40;;;;;;6208397;23;20481;-79
2023/04/26 03:17:42;;;;;;;1.40;1.30;;;18.60;66.40;;;;;;6208010;23;20415;-78
2023/04/26 03:20:09;;;;;;;1.83;1.50;;;18.60;66.40;;;;;;6233499;23;20024;-78
2023/04/26 03:22:36;;;;;;;1.42;1.33;;;18.60;66.30;;;;;;6232824;23;20099;-78
2023/04/26 03:25:02;;;;;;;1.83;1.20;;;18.60;66.20;;;;;;6207947;23;20016;-78
2023/04/26 03:27:30;;;;;;;1.33;1.23;;;18.60;66.10;;;;;;6211205;23;20023;-78
2023/04/26 03:29:56;;;;;;;1.58;1.48;;;18.60;66.50;;;;;;6207493;23;20024;-78
2023/04/26 03:32:23;;;;;;;1.20;1.10;;;18.60;66.30;;;;;;6232819;23;20044;-78
2023/04/26 03:34:50;;;;;;;1.40;1.15;;;18.60;66.40;;;;;;6208051;23;20027;-78
2023/04/26 03:37:16;;;;;;;1.45;1.02;;;18.60;66.40;;;;;;6232476;23;20469;-79
2023/04/26 03:39:46;;;;;;;1.20;1.10;;;18.60;66.40;;;;;;6233267;23;20055;-79
2023/04/26 03:42:13;;;;;;;1.63;1.50;;;18.60;66.40;;;;;;6208185;23;20020;-79
2023/04/26 03:44:39;;;;;;;2.13;1.30;;;18.60;66.50;;;;;;6207932;23;20368;-79
2023/04/26 03:47:05;;;;;;;1.50;1.40;;;18.60;66.60;;;;;;6210517;23;20016;-79
2023/04/26 03:49:31;;;;;;;2.30;1.30;;;18.60;66.80;;;;;;6184026;23;20027;-79
2023/04/26 03:51:57;;;;;;;1.38;1.20;;;18.60;66.70;;;;;;6208855;23;20348;-79
2023/04/26 03:54:23;;;;;;;1.08;0.98;;;18.60;66.90;;;;;;6178784;23;20368;-79
2023/04/26 03:56:50;;;;;;;1.23;1.13;;;18.60;66.90;;;;;;6226607;23;20515;-78
2023/04/26 03:59:16;;;;;;;1.85;1.45;;;18.60;66.60;;;;;;6232820;23;20047;-81
2023/04/26 04:01:42;;;;;;;1.88;1.35;;;18.50;66.90;;;;;;6183839;23;20374;-80
2023/04/26 04:04:09;;;;;;;1.38;1.10;;;18.60;66.90;;;;;;6210004;23;20452;-79
2023/04/26 04:06:35;;;;;;;1.52;1.15;;;18.60;66.80;;;;;;6207682;23;20009;-78
2023/04/26 04:09:01;;;;;;;0.98;0.98;;;18.50;67.00;;;;;;6207298;23;20023;-78
2023/04/26 04:11:27;;;;;;;2.28;0.90;;;18.50;67.00;;;;;;6209094;23;20020;-78
2023/04/26 04:13:53;;;;;;;0.95;0.82;;;18.60;67.10;;;;;;6181887;23;20020;-79
2023/04/26 04:16:19;;;;;;;1.85;1.00;;;18.60;67.10;;;;;;6209185;23;20525;-79
2023/04/26 04:18:45;;;;;;;2.40;1.20;;;18.60;67.30;;;;;;6234256;23;20016;-82
2023/04/26 04:21:11;;;;;;;1.30;1.20;;;18.60;67.10;;;;;;6209999;23;20436;-83
2023/04/26 04:23:38;;;;;;;3.38;1.10;;;18.60;67.20;;;;;;6233040;23;20123;-83
2023/04/26 04:26:07;;;;;;;1.42;1.20;;;18.60;67.50;;;;;;6208414;23;20020;-82
2023/04/26 04:28:34;;;;;;;1.00;0.90;;;18.60;67.50;;;;;;6183689;23;20051;-79
2023/04/26 04:31:00;;;;;;;1.17;1.13;;;18.60;67.50;;;;;;6208408;23;20024;-83
2023/04/26 04:33:27;;;;;;;1.20;1.10;;;18.60;67.40;;;;;;6209239;23;20062;-81
2023/04/26 04:35:54;;;;;;;1.10;1.00;;;18.60;67.70;;;;;;6183763;23;20027;-75
2023/04/26 04:38:20;;;;;;;1.15;1.13;;;18.60;67.70;;;;;;6232773;23;20480;-76
2023/04/26 04:40:49;;;;;;;1.95;1.20;;;18.50;68.40;;;;;;6182878;23;20103;-78
2023/04/26 04:43:16;;;;;;;4.38;1.60;;;18.50;67.90;;;;;;6182318;23;20012;-76
2023/04/26 04:45:43;;;;;;;5.00;1.80;;;18.60;70.80;;;;;;6210046;23;20417;-74
2023/04/26 04:48:10;;;;;;;3.20;1.40;;;18.60;71.10;;;;;;6207432;23;20483;-74
2023/04/26 04:50:38;;;;;;;2.60;1.67;;;18.60;70.70;;;;;;6232543;23;20025;-76
2023/04/26 04:53:04;;;;;;;4.85;1.58;;;18.70;70.40;;;;;;6193379;23;20719;-75
2023/04/26 04:55:30;;;;;;;3.53;1.20;;;18.60;70.90;;;;;;6183683;23;20017;-73
2023/04/26 04:57:57;;;;;;;2.50;1.30;;;18.60;70.80;;;;;;6232244;23;20012;-75
2023/04/26 05:00:24;;;;;;;2.40;1.48;;;18.60;70.50;;;;;;6231894;23;20032;-73
2023/04/26 05:02:56;;;;;;;3.72;1.27;;;18.70;70.50;;;;;;6231885;23;20023;-73
2023/04/26 05:05:22;;;;;;;1.98;1.45;;;18.70;70.70;;;;;;6231793;23;20021;-73
2023/04/26 05:07:48;;;;;;;2.65;1.52;;;18.70;70.50;;;;;;6181026;23;20026;-74
2023/04/26 05:10:15;;;;;;;2.53;1.30;;;18.70;70.90;;;;;;6231188;23;20062;-73
2023/04/26 05:12:41;;;;;;;2.53;1.38;;;18.70;70.70;;;;;;6232036;23;20017;-73
2023/04/26 05:15:07;;;;;;;2.65;1.40;;;18.70;70.60;;;;;;6207574;23;20173;-73
2023/04/26 05:17:33;;;;;;;3.42;1.35;;;18.70;70.90;;;;;;6180341;23;20439;-73
2023/04/26 05:20:08;;;;;;;2.90;1.15;;;18.60;70.40;;;;;;6231718;23;20047;-74
2023/04/26 05:22:35;;;;;;;2.30;1.38;;;18.70;70.60;;;;;;6232090;23;20381;-75
2023/04/26 05:25:03;;;;;;;1.63;1.30;;;18.70;70.50;;;;;;6207126;23;20012;-73
2023/04/26 05:27:29;;;;;;;1.70;1.15;;;18.70;70.30;;;;;;6232624;23;20039;-73
2023/04/26 05:30:15;;;;;;;2.88;1.13;;;18.70;70.50;;;;;;6232180;23;20081;-73
2023/04/26 05:32:49;;;;;;;2.25;1.20;;;18.70;70.50;;;;;;6206844;23;20027;-75
2023/04/26 05:35:38;;;;;;;2.65;1.10;;;18.80;70.40;;;;;;6232088;23;20021;-75
2023/04/26 05:38:04;;;;;;;1.80;0.93;;;18.80;70.30;;;;;;6231800;23;20403;-76
2023/04/26 05:40:31;;;;;;;1.60;1.00;;;18.80;70.20;;;;;;6231729;23;20048;-75
2023/04/26 05:42:57;;;;;;;1.75;1.02;;;18.80;70.10;;;;;;6232464;23;20019;-75
2023/04/26 05:45:25;;;;;;;1.02;0.93;;;18.80;69.90;;;;;;6232275;23;20028;-75
2023/04/26 05:47:51;;;;;;;2.10;1.33;;;18.80;70.00;;;;;;6206432;23;20111;-76
2023/04/26 05:50:17;;;;;;;3.30;0.88;;;18.80;69.90;;;;;;6206699;23;20025;-76
2023/04/26 05:52:43;;;;;;;3.45;1.10;;;18.80;69.80;;;;;;6205879;23;20028;-76
2023/04/26 05:55:09;;;;;;;1.17;1.08;;;18.80;70.00;;;;;;6208104;23;20016;-75
2023/04/26 05:57:35;;;;;;;1.30;1.00;;;18.80;69.60;;;;;;6231924;23;20539;-74
2023/04/26 06:00:05;;;;;;;2.35;1.20;;;18.80;69.70;;;;;;6231702;23;20103;-74
2023/04/26 06:02:40;;;;;;;1.52;1.42;;;18.80;69.80;;;;;;6206047;23;20044;-74
2023/04/26 06:05:10;;;;;;;1.30;1.10;;;18.90;69.90;;;;;;6232062;23;20455;-74
2023/04/26 06:07:36;;;;;;;0.80;0.80;;;18.90;69.50;;;;;;6231560;23;20017;-75
2023/04/26 06:10:03;;;;;;;1.98;1.45;;;18.90;69.80;;;;;;6231900;23;20008;-75
2023/04/26 06:12:30;;;;;;;7.28;5.28;;;18.90;69.80;;;;;;6232711;23;20016;-75
2023/04/26 06:14:57;;;;;;;5.85;3.58;;;18.90;69.60;;;;;;6231434;23;20095;-74
2023/04/26 06:17:26;;;;;;;3.22;2.50;;;18.90;69.40;;;;;;6231601;23;20062;-75
2023/04/26 06:19:52;;;;;;;3.80;2.03;;;18.90;69.40;;;;;;6231831;23;20533;-74
2023/04/26 06:22:18;;;;;;;3.60;1.65;;;18.90;69.40;;;;;;6205531;23;20040;-74
2023/04/26 06:24:44;;;;;;;2.78;1.63;;;19.00;70.00;;;;;;6207051;23;20016;-74
2023/04/26 06:27:10;;;;;;;3.55;1.70;;;18.90;70.30;;;;;;6231681;23;20032;-74
2023/04/26 06:29:37;;;;;;;2.70;1.20;;;19.00;70.40;;;;;;6232839;23;20024;-74
2023/04/26 06:32:03;;;;;;;3.65;1.60;;;19.00;70.70;;;;;;6233589;23;20075;-74
2023/04/26 06:34:30;;;;;;;2.25;0.90;;;19.00;71.40;;;;;;6208376;23;20027;-74
2023/04/26 06:36:56;;;;;;;3.78;1.05;;;18.90;71.40;;;;;;6234060;23;20012;-74
2023/04/26 06:39:25;;;;;;;2.00;0.85;;;18.90;71.20;;;;;;6183099;23;20024;-75
2023/04/26 06:41:52;;;;;;;1.27;1.00;;;19.00;70.70;;;;;;6233837;23;20020;-74
2023/04/26 06:44:25;;;;;;;2.17;0.95;;;19.00;70.70;;;;;;6207802;23;20016;-74
2023/04/26 06:47:00;;;;;;;1.87;0.90;;;19.00;70.80;;;;;;6209558;23;20021;-74
2023/04/26 06:49:26;;;;;;;1.88;1.02;;;19.00;70.60;;;;;;6232870;23;20635;-74
2023/04/26 06:51:52;;;;;;;1.63;0.90;;;19.00;70.50;;;;;;6209474;23;20088;-74
2023/04/26 06:54:18;;;;;;;1.55;0.90;;;19.00;71.10;;;;;;6208663;23;20372;-74
2023/04/26 06:56:45;;;;;;;2.50;1.10;;;19.00;70.50;;;;;;6208981;23;20017;-74
2023/04/26 06:59:11;;;;;;;2.17;1.23;;;19.00;70.30;;;;;;6208462;23;20100;-74
2023/04/26 07:01:38;;;;;;;1.23;0.77;;;19.10;70.30;;;;;;6209622;23;20017;-74
2023/04/26 07:04:09;;;;;;;1.70;0.82;;;19.10;70.10;;;;;;6208223;23;20356;-74
2023/04/26 07:06:36;;;;;;;2.80;1.20;;;19.10;70.20;;;;;;6210738;23;20407;-74
2023/04/26 07:09:02;;;;;;;1.52;0.95;;;19.10;69.80;;;;;;6209716;23;20025;-74
2023/04/26 07:11:29;;;;;;;2.13;0.75;;;19.10;69.80;;;;;;6209951;23;20020;-74
2023/04/26 07:13:55;;;;;;;1.85;0.70;;;19.10;69.80;;;;;;6209852;23;20024;-73
2023/04/26 07:16:22;;;;;;;1.27;0.90;;;19.10;69.50;;;;;;6209776;23;20082;-74
2023/04/26 07:18:48;;;;;;;1.48;0.70;;;19.20;69.60;;;;;;6210317;23;20063;-74
2023/04/26 07:21:14;;;;;;;0.88;0.60;;;19.10;69.30;;;;;;6209459;23;20029;-72
2023/04/26 07:23:40;;;;;;;0.60;0.57;;;19.20;69.10;;;;;;6209751;23;20392;-73
2023/04/26 07:26:06;;;;;;;1.38;0.70;;;19.10;69.20;;;;;;6209731;23;20075;-73
2023/04/26 07:28:32;;;;;;;1.33;0.80;;;19.10;69.00;;;;;;6208083;23;20086;-73
2023/04/26 07:31:00;;;;;;;2.38;0.70;;;19.20;68.90;;;;;;6209767;23;20055;-74
2023/04/26 07:33:26;;;;;;;0.95;0.65;;;19.20;68.90;;;;;;6209374;23;20012;-74
2023/04/26 07:36:00;;;;;;;0.70;0.70;;;19.20;68.70;;;;;;6209914;23;20017;-74
2023/04/26 07:38:26;;;;;;;1.15;0.63;;;19.20;68.50;;;;;;6210082;23;20079;-73
2023/04/26 07:40:52;;;;;;;1.20;0.77;;;19.20;68.20;;;;;;6207888;23;20306;-73
2023/04/26 07:43:19;;;;;;;1.00;0.70;;;19.20;68.30;;;;;;6209054;23;20321;-73
2023/04/26 07:45:45;;;;;;;1.02;0.70;;;19.20;68.50;;;;;;6210281;23;20012;-73
2023/04/26 07:48:11;;;;;;;2.05;1.00;;;19.20;68.50;;;;;;6210266;23;20020;-74
2023/04/26 07:50:38;;;;;;;0.85;0.70;;;19.20;68.50;;;;;;6209103;23;20546;-73
2023/04/26 07:53:04;;;;;;;0.93;0.88;;;19.20;68.50;;;;;;6208988;23;20047;-73
2023/04/26 07:55:30;;;;;;;4.40;1.10;;;19.30;68.40;;;;;;6210146;23;20047;-73
2023/04/26 07:57:56;;;;;;;1.30;0.88;;;19.30;68.30;;;;;;6208071;23;20017;-73
2023/04/26 08:00:22;;;;;;;2.35;0.77;;;19.30;68.30;;;;;;6209091;23;20338;-74
2023/04/26 08:02:48;;;;;;;1.38;0.90;;;19.30;68.20;;;;;;6210020;23;20016;-74
2023/04/26 08:05:15;;;;;;;1.52;0.85;;;19.30;68.50;;;;;;6208215;23;20383;-73
2023/04/26 08:07:42;;;;;;;1.13;0.90;;;19.20;68.30;;;;;;6209548;23;20407;-74
2023/04/26 08:10:09;;;;;;;1.10;0.90;;;19.30;68.00;;;;;;6209644;23;20016;-74
2023/04/26 08:12:37;;;;;;;1.30;1.20;;;19.30;68.00;;;;;;6209512;23;20406;-74
2023/04/26 08:15:04;;;;;;;0.70;0.70;;;19.30;68.20;;;;;;6209156;23;20032;-74
2023/04/26 08:17:31;;;;;;;1.88;1.10;;;19.30;68.00;;;;;;6209045;23;20805;-74
2023/04/26 08:19:58;;;;;;;1.05;1.02;;;19.30;68.10;;;;;;6208942;23;20499;-74
2023/04/26 08:22:24;;;;;;;1.15;1.00;;;19.20;67.90;;;;;;6208467;23;20046;-74
2023/04/26 08:24:51;;;;;;;2.60;1.00;;;19.30;68.00;;;;;;6207986;23;20016;-74
2023/04/26 08:27:18;;;;;;;1.00;0.90;;;19.30;68.10;;;;;;6208830;23;20044;-74
2023/04/26 08:29:45;;;;;;;1.40;0.90;;;19.30;67.90;;;;;;6208864;23;20032;-74
2023/04/26 08:32:11;;;;;;;0.80;0.80;;;19.30;67.80;;;;;;6193720;23;20028;-74
2023/04/26 08:34:36;;;;;;;1.15;1.00;;;19.30;68.40;;;;;;6186914;23;20070;-74
2023/04/26 08:37:03;;;;;;;1.38;0.77;;;19.40;67.70;;;;;;6208716;23;20013;-74
2023/04/26 08:39:29;;;;;;;1.10;1.00;;;19.40;67.80;;;;;;6209587;23;20048;-74
2023/04/26 08:42:03;;;;;;;1.13;0.90;;;19.40;67.60;;;;;;6208865;23;20384;-73
2023/04/26 08:44:33;;;;;;;1.00;1.00;;;19.40;67.30;;;;;;6209075;23;20036;-74
2023/04/26 08:47:19;;;;;;;1.02;0.98;;;19.40;67.30;;;;;;6208937;23;20021;-73
2023/04/26 08:49:52;;;;;;;1.77;1.00;;;19.40;67.10;;;;;;6191480;23;20419;-73
2023/04/26 08:52:22;;;;;;;1.10;1.00;;;19.40;66.80;;;;;;6208332;23;20066;-73
2023/04/26 08:54:52;;;;;;;1.58;1.05;;;19.40;67.00;;;;;;6182721;23;20005;-74
2023/04/26 08:57:20;;;;;;;1.00;1.00;;;19.40;66.90;;;;;;6208877;23;20027;-74
2023/04/26 08:59:46;;;;;;;0.90;0.88;;;19.50;66.60;;;;;;6209147;23;20044;-73
2023/04/26 09:02:21;;;;;;;1.38;1.27;;;19.50;66.70;;;;;;6208313;23;20546;-75
2023/04/26 09:04:48;;;;;;;2.53;1.23;;;19.50;66.80;;;;;;6207368;23;20021;-75
2023/04/26 09:07:20;;;;;;;1.20;1.10;;;19.50;66.70;;;;;;6208482;23;20012;-74
2023/04/26 09:09:51;;;;;;;1.58;1.30;;;19.50;66.60;;;;;;6209422;23;20012;-74
2023/04/26 09:12:21;;;;;;;1.48;1.17;;;19.50;66.60;;;;;;6207875;23;20024;-74
2023/04/26 09:14:47;;;;;;;1.33;1.23;;;19.50;66.60;;;;;;6207438;23;20071;-74
2023/04/26 09:17:31;;;;;;;1.55;1.30;;;19.50;66.30;;;;;;6207361;23;20024;-74
2023/04/26 09:20:05;;;;;;;1.25;1.15;;;19.60;66.60;;;;;;6208473;23;20031;-74
2023/04/26 09:22:36;;;;;;;3.30;1.10;;;19.60;66.30;;;;;;6208799;23;20856;-75
2023/04/26 09:25:06;;;;;;;1.13;1.02;;;19.60;66.40;;;;;;6208792;23;20044;-74
2023/04/26 09:27:37;;;;;;;1.20;1.10;;;19.60;66.10;;;;;;6209279;23;20008;-75
2023/04/26 09:30:17;;;;;;;1.02;0.98;;;19.60;66.00;;;;;;6208611;23;20056;-74
2023/04/26 09:32:52;;;;;;;1.20;1.10;;;19.60;65.50;;;;;;6232671;23;20387;-73
2023/04/26 09:35:25;;;;;;;2.50;1.17;;;19.70;65.60;;;;;;6208587;23;20028;-74
2023/04/26 09:38:02;;;;;;;2.42;1.00;;;19.70;65.70;;;;;;6208799;23;20016;-74
2023/04/26 09:40:34;;;;;;;1.20;1.10;;;19.70;65.50;;;;;;6181914;23;20415;-74
2023/04/26 09:43:04;;;;;;;1.38;1.20;;;19.80;65.60;;;;;;6209186;23;20187;-74
2023/04/26 09:45:32;;;;;;;1.33;1.20;;;19.80;65.40;;;;;;6208660;23;20427;-73
2023/04/26 09:48:15;;;;;;;3.58;1.17;;;19.80;65.40;;;;;;6208962;23;20044;-74
2023/04/26 09:50:44;;;;;;;1.20;1.10;;;19.90;65.30;;;;;;6208370;23;20024;-74
2023/04/26 09:53:10;;;;;;;1.15;1.05;;;19.90;64.90;;;;;;6207711;23;20028;-75
2023/04/26 09:55:36;;;;;;;2.55;1.17;;;19.90;64.80;;;;;;6208214;23;20027;-75
2023/04/26 09:58:09;;;;;;;1.80;1.20;;;20.00;64.70;;;;;;6208597;23;20044;-74
2023/04/26 10:00:38;;;;;;;1.55;1.40;;;20.00;64.60;;;;;;6208889;23;20009;-76
2023/04/26 10:03:07;;;;;;;1.20;1.10;;;20.00;64.60;;;;;;6208888;23;20020;-74
2023/04/26 10:05:33;;;;;;;1.35;1.33;;;20.10;64.70;;;;;;6210293;23;20021;-75
2023/04/26 10:08:00;;;;;;;1.77;1.42;;;20.10;64.60;;;;;;6210305;23;20020;-76
2023/04/26 10:10:26;;;;;;;1.40;1.30;;;20.10;64.70;;;;;;6210449;23;20021;-76
2023/04/26 10:12:52;;;;;;;1.60;1.50;;;20.10;64.60;;;;;;6210717;23;20016;-76
2023/04/26 10:15:18;;;;;;;1.40;1.30;;;20.20;64.40;;;;;;6208444;23;20027;-76
2023/04/26 10:17:45;;;;;;;1.50;1.40;;;20.20;64.50;;;;;;6208412;23;20056;-76
2023/04/26 10:20:13;;;;;;;1.20;1.20;;;20.30;64.30;;;;;;6209958;23;20469;-77
2023/04/26 10:22:44;;;;;;;1.52;1.42;;;20.30;64.10;;;;;;6200926;23;20025;-79
2023/04/26 10:25:11;;;;;;;4.43;1.58;;;20.40;64.30;;;;;;6206304;23;20361;-79
2023/04/26 10:27:43;;;;;;;1.27;1.17;;;20.50;64.70;;;;;;6184453;23;20009;-79
2023/04/26 10:30:11;;;;;;;3.60;2.17;;;20.50;64.60;;;;;;6211226;23;20029;-79
2023/04/26 10:32:52;;;;;;;3.80;2.90;;;20.60;64.60;;;;;;6211152;23;20016;-79
2023/04/26 10:35:18;;;;;;;1.90;1.40;;;20.60;64.40;;;;;;6234677;23;20023;-79
2023/04/26 10:38:00;;;;;;;1.70;1.60;;;20.70;64.20;;;;;;6234801;23;20527;-79
2023/04/26 10:40:27;;;;;;;1.60;1.50;;;20.70;64.30;;;;;;6211014;23;20538;-80
2023/04/26 10:43:17;;;;;;;2.25;1.80;;;20.80;64.30;;;;;;6211151;23;20023;-80
2023/04/26 10:45:47;;;;;;;2.35;1.70;;;20.80;64.30;;;;;;6181226;23;20447;-80
2023/04/26 10:48:18;;;;;;;2.78;2.03;;;20.90;63.90;;;;;;6208353;23;20468;-79
2023/04/26 10:51:16;;;;;;;1.75;1.65;;;20.90;63.90;;;;;;6210456;23;20028;-79
2023/04/26 10:53:45;;;;;;;1.80;1.70;;;21.00;63.60;;;;;;6119387;23;20033;-77
2023/04/26 10:56:23;;;;;;;1.80;1.70;;;21.00;63.70;;;;;;6134412;23;20025;-78
2023/04/26 10:59:07;;;;;;;1.92;1.75;;;21.10;64.00;;;;;;6149925;23;20109;-79
2023/04/26 11:01:32;;;;;;;3.13;1.60;;;21.10;64.30;;;;;;6151255;23;20028;-80
2023/04/26 11:03:58;;;;;;;2.72;1.80;;;21.10;63.90;;;;;;6151634;23;20013;-80
2023/04/26 11:06:28;;;;;;;3.00;1.80;;;21.20;64.00;;;;;;6151715;23;20021;-82
2023/04/26 11:08:54;;;;;;;2.03;1.70;;;21.20;64.00;;;;;;6126946;23;20404;-85
2023/04/26 11:11:25;;;;;;;6.55;2.20;;;21.20;63.70;;;;;;6152064;23;20100;-80
2023/04/26 11:13:51;;;;;;;5.10;2.20;;;21.20;64.30;;;;;;6149909;23;20021;-82
2023/04/26 11:16:17;;;;;;;5.28;2.38;;;21.30;64.70;;;;;;6126395;23;20100;-80
2023/04/26 11:18:45;;;;;;;3.85;2.40;;;21.30;66.20;;;;;;6151412;23;20010;-80
2023/04/26 11:21:14;;;;;;;4.60;2.53;;;21.30;66.70;;;;;;6125868;23;20025;-79
2023/04/26 11:23:40;;;;;;;3.10;2.35;;;21.30;67.20;;;;;;6123344;23;20481;-79
2023/04/26 11:26:07;;;;;;;4.75;2.50;;;21.40;66.90;;;;;;6148295;23;20021;-79
2023/04/26 11:28:37;;;;;;;5.03;2.30;;;21.40;67.10;;;;;;6154476;23;20111;-79
2023/04/26 11:31:05;;;;;;;2.40;1.77;;;21.50;66.30;;;;;;6205463;23;20021;-79
2023/04/26 11:33:33;;;;;;;3.95;2.45;;;21.50;66.70;;;;;;6211593;23;20019;-81
2023/04/26 11:35:59;;;;;;;3.78;2.00;;;21.50;67.00;;;;;;6213119;23;20051;-78
2023/04/26 11:38:27;;;;;;;3.95;1.98;;;21.60;66.40;;;;;;6212438;23;20032;-79
2023/04/26 11:40:58;;;;;;;5.75;1.90;;;21.60;66.00;;;;;;6213837;23;20493;-79
2023/04/26 11:43:39;;;;;;;2.08;1.85;;;21.60;66.00;;;;;;6213190;23;20495;-79
2023/04/26 11:46:08;;;;;;;1.67;1.58;;;21.70;66.20;;;;;;6210690;23;20067;-80
2023/04/26 11:48:35;;;;;;;2.17;1.67;;;21.70;65.60;;;;;;6187458;23;20352;-79
2023/04/26 11:51:06;;;;;;;2.20;1.80;;;21.80;65.20;;;;;;6237169;23;20404;-78
2023/04/26 11:53:39;;;;;;;2.15;1.80;;;21.80;64.60;;;;;;6212603;23;20388;-79
2023/04/26 11:56:19;;;;;;;3.88;1.70;;;21.80;65.40;;;;;;6211311;23;20024;-80
2023/04/26 11:58:49;;;;;;;3.33;1.60;;;21.80;65.20;;;;;;6211895;23;20031;-80
2023/04/26 12:01:29;;;;;;;2.97;1.70;;;21.80;65.30;;;;;;6212842;23;20009;-79
2023/04/26 12:03:58;;;;;;;3.85;2.08;;;21.80;65.70;;;;;;6213670;23;20096;-85
2023/04/26 12:06:45;;;;;;;1.95;1.55;;;21.80;66.00;;;;;;6211889;23;20020;-84
2023/04/26 12:09:11;;;;;;;1.98;1.80;;;21.80;65.90;;;;;;6187043;23;20024;-87
2023/04/26 12:11:38;;;;;;;3.60;1.70;;;21.80;66.00;;;;;;6205254;23;20519;-88
2023/04/26 12:14:06;;;;;;;2.42;1.42;;;21.90;65.80;;;;;;6193852;23;20021;-85
2023/04/26 12:16:35;;;;;;;1.75;1.10;;;21.90;66.10;;;;;;6183854;23;20027;-80
2023/04/26 12:19:07;;;;;;;2.10;1.60;;;21.90;65.90;;;;;;6211261;23;20043;-78
2023/04/26 12:21:43;;;;;;;3.30;1.45;;;21.90;65.60;;;;;;6210448;23;20021;-77
2023/04/26 12:24:29;;;;;;;3.65;1.70;;;21.90;65.50;;;;;;6209975;23;20025;-78
2023/04/26 12:26:55;;;;;;;;;;;22.00;65.80;;;;;;6182890;23;20048;-78
2023/04/26 12:29:21;;;;;;;4.45;1.73;;;22.00;65.80;;;;;;6207003;23;19912;-78
2023/04/26 12:31:47;;;;;;;5.07;1.75;;;22.00;65.60;;;;;;6207075;23;20354;-78
2023/04/26 12:34:13;;;;;;;1.85;1.60;;;22.00;65.60;;;;;;6208477;23;20019;-78
2023/04/26 12:36:43;;;;;;;2.20;1.50;;;22.00;65.40;;;;;;6209211;23;20197;-78
2023/04/26 12:39:13;;;;;;;2.42;1.48;;;22.00;65.40;;;;;;6232905;23;20099;-78
2023/04/26 12:41:43;;;;;;;3.65;1.60;;;22.00;65.00;;;;;;6207986;23;20021;-78
2023/04/26 12:44:10;;;;;;;2.83;1.50;;;22.00;64.90;;;;;;6209756;23;20032;-78
2023/04/26 12:46:36;;;;;;;1.63;1.38;;;22.10;65.00;;;;;;6233443;23;20077;-78
2023/04/26 12:49:03;;;;;;;2.00;1.33;;;22.10;64.60;;;;;;6210688;23;20063;-78
2023/04/26 12:51:30;;;;;;;3.53;1.40;;;22.10;64.20;;;;;;6210711;23;20463;-78
2023/04/26 12:53:56;;;;;;;1.10;1.10;;;22.10;63.30;;;;;;6209673;23;20039;-78